Maytown, Alabama
Current Conditions -  °F | °C
As of 5:53 PM on Friday 28 Nov 2014 (Local Time) from KBHM Reporting Station
Clear Clear  
Wind Chill: 44°   Ceiling: Unl
Heat Index: 46°   Visibility: 10mi
Dew Point: 20°   Wind: 5mph
Humidity: 35%   Direction: 140°SE
Pressure: 30.3"   Gusts: NA
Location:  33.5392°N, 87.0555°W
Report Text: KBHM 282353Z 14004KT 10SM CLR 08/M07 A3030 RMK AO2 SLP261 T00781067 10117 20078 55003
Loading
Personal Weather Stations






























Interactive Weather Map New forecast layout! Learn more

10-Day Weather Forecast

Advertisements
Track Severe Weather on mobile